Terminal Aerodrome Forecast
Issued by NWS

Home | Current Version | Previous Version | Graphics & Text | Print | Product List | Glossary On
Versions: 1 2 3 4 5 6 7 8 9 10 11 12 13 14 15 16
196
FTUS43 KBIS 222336
TAFDIK
TAF
KDIK 222336Z 2300/2324 35016KT P6SM BKN035
     FM230100 36015KT P6SM BKN015 OVC025
     FM231700 01008KT P6SM VCSH BKN015 OVC020
     FM232100 01008KT P6SM -SHRA BKN015 OVC035=

USA.gov is the U.S. government's official web portal to all federal, state and local government web resources and services.